Time;durP1;ratioP1;P1;durP2;ratioP2;P2;SDS_P1;SDS_P2;PMS_P1;PMS_P2;Temp;Humidity;BMP_temperature;BMP_pressure;BME280_temperature;BME280_humidity;BME280_pressure;Samples;Min_cycle;Max_cycle;Signal;HPM_P1;HPM_P2
2022/08/07 00:01:38;;;;;;;;;;;21.70;50.70;;;;;;5097363;28;19931;-8
2022/08/07 00:04:04;;;;;;;;;;;21.60;50.70;;;;;;5097845;28;20250;-9
2022/08/07 00:06:29;;;;;;;;;;;21.60;50.90;;;;;;5097452;28;19910;-9
2022/08/07 00:08:55;;;;;;;;;;;21.60;50.70;;;;;;5100650;28;19915;-9
2022/08/07 00:11:21;;;;;;;;;;;21.70;50.60;;;;;;5101135;28;19908;-9
2022/08/07 00:13:47;;;;;;;;;;;21.80;50.60;;;;;;5101483;28;19911;-9
2022/08/07 00:16:13;;;;;;;;;;;21.90;50.40;;;;;;5101250;28;19993;-9
2022/08/07 00:18:39;;;;;;;;;;;21.90;50.30;;;;;;5101484;28;19912;-9
2022/08/07 00:21:05;;;;;;;;;;;22.00;50.30;;;;;;5101188;28;19957;-9
2022/08/07 00:23:31;;;;;;;;;;;22.00;50.30;;;;;;5101053;28;19908;-9
2022/08/07 00:25:57;;;;;;;;;;;22.10;50.40;;;;;;5100758;28;19904;-9
2022/08/07 00:28:23;;;;;;;;;;;22.10;50.40;;;;;;5083882;28;19910;-9
2022/08/07 00:30:49;;;;;;;;;;;22.10;50.40;;;;;;5100964;28;19904;-9
2022/08/07 00:33:14;;;;;;;;;;;22.10;50.50;;;;;;5100794;28;20395;-9
2022/08/07 00:35:40;;;;;;;;;;;22.20;50.50;;;;;;5100945;28;19912;-9
2022/08/07 00:38:08;;;;;;;;;;;22.10;50.50;;;;;;5100423;28;19908;-9
2022/08/07 00:40:34;;;;;;;;;;;22.20;50.50;;;;;;5083029;28;19904;-9
2022/08/07 00:42:59;;;;;;;;;;;22.20;50.60;;;;;;5100577;28;19904;-9
2022/08/07 00:45:25;;;;;;;;;;;22.20;50.60;;;;;;5100886;28;19904;-9
2022/08/07 00:47:51;;;;;;;;;;;22.10;50.60;;;;;;5082669;28;19907;-9
2022/08/07 00:50:17;;;;;;;;;;;22.10;50.70;;;;;;5083391;28;19931;-9
2022/08/07 00:52:43;;;;;;;;;;;22.00;51.10;;;;;;5100627;28;19951;-9
2022/08/07 00:55:09;;;;;;;;;;;21.90;51.00;;;;;;5083177;28;19943;-9
2022/08/07 00:57:35;;;;;;;;;;;22.00;51.10;;;;;;5099377;28;19904;-9
2022/08/07 01:00:03;;;;;;;;;;;22.00;51.10;;;;;;5099838;28;20031;-9
2022/08/07 01:02:29;;;;;;;;;;;22.00;51.10;;;;;;5100501;28;19986;-9
2022/08/07 01:04:55;;;;;;;;;;;22.00;51.10;;;;;;5082818;28;20001;-9
2022/08/07 01:07:22;;;;;;;;;;;22.00;51.10;;;;;;5099677;28;19908;-9
2022/08/07 01:09:48;;;;;;;;;;;22.00;51.10;;;;;;5099965;28;19994;-9
2022/08/07 01:12:14;;;;;;;;;;;22.00;51.20;;;;;;5082123;28;19990;-10
2022/08/07 01:14:40;;;;;;;;;;;22.00;51.30;;;;;;5100183;28;19904;-9
2022/08/07 01:17:06;;;;;;;;;;;22.00;51.40;;;;;;5081748;28;19904;-10
2022/08/07 01:19:32;;;;;;;;;;;22.00;51.40;;;;;;5099557;28;19916;-9
2022/08/07 01:21:58;;;;;;;;;;;22.00;51.40;;;;;;5081483;28;19904;-10
2022/08/07 01:24:24;;;;;;;;;;;22.00;51.50;;;;;;5100034;28;19995;-9
2022/08/07 01:26:52;;;;;;;;;;;21.90;51.60;;;;;;5100245;28;19947;-9
2022/08/07 01:29:19;;;;;;;;;;;21.90;51.80;;;;;;5099851;28;19927;-9
2022/08/07 01:31:44;;;;;;;;;;;21.80;51.80;;;;;;5100250;28;19969;-9
2022/08/07 01:34:10;;;;;;;;;;;21.80;51.80;;;;;;5099568;28;19908;-9
2022/08/07 01:36:39;;;;;;;;;;;21.80;51.90;;;;;;5081859;28;19958;-9
2022/08/07 01:39:05;;;;;;;;;;;21.80;51.90;;;;;;5082202;28;19908;-9
2022/08/07 01:41:31;;;;;;;;;;;21.80;51.90;;;;;;5099558;28;19908;-9
2022/08/07 01:43:56;;;;;;;;;;;21.80;51.90;;;;;;5082462;28;19914;-9
2022/08/07 01:46:25;;;;;;;;;;;21.80;51.90;;;;;;5081776;28;20045;-9
2022/08/07 01:48:50;;;;;;;;;;;21.80;52.00;;;;;;5082230;28;19911;-9
2022/08/07 01:51:18;;;;;;;;;;;21.80;52.00;;;;;;5099950;28;19911;-9
2022/08/07 01:53:46;;;;;;;;;;;21.80;52.10;;;;;;5099295;28;19908;-9
2022/08/07 01:56:13;;;;;;;;;;;21.70;52.10;;;;;;5081746;28;20387;-9
2022/08/07 01:58:42;;;;;;;;;;;21.70;52.10;;;;;;5099071;28;19923;-9
2022/08/07 02:01:11;;;;;;;;;;;21.70;52.20;;;;;;5081591;28;19904;-9
2022/08/07 02:03:48;;;;;;;;;;;21.70;52.20;;;;;;5098887;28;20341;-9
2022/08/07 02:06:15;;;;;;;;;;;21.70;52.20;;;;;;5098870;28;19904;-9
2022/08/07 02:08:42;;;;;;;;;;;21.70;52.20;;;;;;5081742;28;20284;-9
2022/08/07 02:11:09;;;;;;;;;;;21.70;52.20;;;;;;5098937;28;19904;-9
2022/08/07 02:13:36;;;;;;;;;;;21.60;52.30;;;;;;5081194;28;19914;-9
2022/08/07 02:16:03;;;;;;;;;;;21.60;52.20;;;;;;5081338;28;19994;-9
2022/08/07 02:18:29;;;;;;;;;;;21.60;52.30;;;;;;5099189;28;19916;-9
2022/08/07 02:20:55;;;;;;;;;;;21.60;52.30;;;;;;5098908;28;20197;-9
2022/08/07 02:23:22;;;;;;;;;;;21.60;52.30;;;;;;5099330;28;19973;-9
2022/08/07 02:25:48;;;;;;;;;;;21.60;52.40;;;;;;5098911;28;19904;-9
2022/08/07 02:28:14;;;;;;;;;;;21.50;52.50;;;;;;5097745;28;19966;-10
2022/08/07 02:30:41;;;;;;;;;;;21.30;52.80;;;;;;5080384;28;20278;-9
2022/08/07 02:33:07;;;;;;;;;;;21.10;53.60;;;;;;5098495;28;19954;-9
2022/08/07 02:35:34;;;;;;;;;;;20.90;53.50;;;;;;5098548;28;19915;-9
2022/08/07 02:38:01;;;;;;;;;;;20.80;53.80;;;;;;5081402;28;19908;-9
2022/08/07 02:40:27;;;;;;;;;;;20.70;53.90;;;;;;5081198;28;19904;-9
2022/08/07 02:42:53;;;;;;;;;;;20.60;54.20;;;;;;5081392;28;19914;-9
2022/08/07 02:45:20;;;;;;;;;;;20.60;54.30;;;;;;5080395;28;19904;-9
2022/08/07 02:47:46;;;;;;;;;;;20.70;54.10;;;;;;5097507;28;20348;-10
2022/08/07 02:50:13;;;;;;;;;;;20.80;53.90;;;;;;5080781;28;20264;-9
2022/08/07 02:52:45;;;;;;;;;;;20.90;53.70;;;;;;5098597;28;19904;-9
2022/08/07 02:55:19;;;;;;;;;;;20.80;53.90;;;;;;5080847;28;19915;-10
2022/08/07 02:57:45;;;;;;;;;;;20.70;54.00;;;;;;5097895;28;19908;-10
2022/08/07 03:00:11;;;;;;;;;;;20.70;54.20;;;;;;5098201;28;19934;-10
2022/08/07 03:02:39;;;;;;;;;;;20.70;54.10;;;;;;5080842;28;20181;-9
2022/08/07 03:05:10;;;;;;;;;;;20.70;54.00;;;;;;5098147;28;19904;-9
2022/08/07 03:07:36;;;;;;;;;;;20.70;54.20;;;;;;5080532;28;19904;-9
2022/08/07 03:10:02;;;;;;;;;;;20.60;54.30;;;;;;5080358;28;19912;-9
2022/08/07 03:12:28;;;;;;;;;;;20.70;54.10;;;;;;5080885;28;20007;-9
2022/08/07 03:14:57;;;;;;;;;;;20.80;54.00;;;;;;5080403;28;19939;-9
2022/08/07 03:17:23;;;;;;;;;;;20.70;54.00;;;;;;5080827;28;19994;-9
2022/08/07 03:19:52;;;;;;;;;;;20.80;54.20;;;;;;5097987;28;20026;-9
2022/08/07 03:22:18;;;;;;;;;;;20.60;54.30;;;;;;5098540;28;19918;-9
2022/08/07 03:24:44;;;;;;;;;;;20.60;54.40;;;;;;5080638;28;19926;-9
2022/08/07 03:27:10;;;;;;;;;;;20.70;54.30;;;;;;5098188;28;20186;-9
2022/08/07 03:29:41;;;;;;;;;;;20.70;54.00;;;;;;5080373;28;20305;-9
2022/08/07 03:32:07;;;;;;;;;;;20.70;54.00;;;;;;5080498;28;19996;-9
2022/08/07 03:34:35;;;;;;;;;;;20.70;54.20;;;;;;5079998;28;19904;-9
2022/08/07 03:37:02;;;;;;;;;;;20.70;54.10;;;;;;5098032;28;19911;-9
2022/08/07 03:39:28;;;;;;;;;;;20.70;54.10;;;;;;5097970;28;20042;-9
2022/08/07 03:41:54;;;;;;;;;;;20.70;54.10;;;;;;5080709;28;20239;-9
2022/08/07 03:44:20;;;;;;;;;;;20.70;54.20;;;;;;5101714;28;19904;-9
2022/08/07 03:46:47;;;;;;;;;;;20.70;54.20;;;;;;5102465;28;19939;-9
2022/08/07 03:49:13;;;;;;;;;;;20.70;54.00;;;;;;5083928;28;20245;-9
2022/08/07 03:51:39;;;;;;;;;;;20.70;53.80;;;;;;5101419;28;19946;-9
2022/08/07 03:54:04;;;;;;;;;;;20.80;54.20;;;;;;5101441;28;20232;-9
2022/08/07 03:56:33;;;;;;;;;;;20.80;53.60;;;;;;5084246;28;19911;-9
2022/08/07 03:58:58;;;;;;;;;;;20.80;53.70;;;;;;5101622;28;19919;-9
2022/08/07 04:01:25;;;;;;;;;;;20.70;53.80;;;;;;5084108;28;20273;-9
2022/08/07 04:03:51;;;;;;;;;;;20.70;53.80;;;;;;5101640;28;19911;-9
2022/08/07 04:06:18;;;;;;;;;;;20.70;53.80;;;;;;5101879;28;19904;-10
2022/08/07 04:08:43;;;;;;;;;;;20.70;53.70;;;;;;5100535;28;19904;-9
2022/08/07 04:11:09;;;;;;;;;;;20.80;53.70;;;;;;5101695;28;20395;-10
2022/08/07 04:13:35;;;;;;;;;;;20.80;53.60;;;;;;5101525;28;19974;-9
2022/08/07 04:16:02;;;;;;;;;;;20.80;53.50;;;;;;5101381;28;20296;-9
2022/08/07 04:18:28;;;;;;;;;;;20.80;53.50;;;;;;5101481;28;20185;-9
2022/08/07 04:20:54;;;;;;;;;;;20.80;53.50;;;;;;5101091;28;19904;-10
2022/08/07 04:23:19;;;;;;;;;;;20.80;53.50;;;;;;5101390;28;19987;-9
2022/08/07 04:25:46;;;;;;;;;;;20.80;53.50;;;;;;5101025;28;20213;-9
2022/08/07 04:28:12;;;;;;;;;;;20.80;53.50;;;;;;5100979;28;19912;-9
2022/08/07 04:30:37;;;;;;;;;;;20.80;53.40;;;;;;5101010;28;19981;-9
2022/08/07 04:33:07;;;;;;;;;;;20.80;53.50;;;;;;5100043;28;19904;-9
2022/08/07 04:35:33;;;;;;;;;;;20.70;53.40;;;;;;5100808;28;19915;-9
2022/08/07 04:37:59;;;;;;;;;;;20.70;53.50;;;;;;5083726;28;19908;-9
2022/08/07 04:40:24;;;;;;;;;;;20.70;53.60;;;;;;5101169;28;19966;-9
2022/08/07 04:42:50;;;;;;;;;;;20.70;53.70;;;;;;5101145;28;19904;-9
2022/08/07 04:45:16;;;;;;;;;;;20.70;53.60;;;;;;5099873;28;19910;-9
2022/08/07 04:47:54;;;;;;;;;;;20.70;53.70;;;;;;5100698;28;19908;-9
2022/08/07 04:50:25;;;;;;;;;;;20.60;54.00;;;;;;5100556;28;19904;-9
2022/08/07 04:53:25;;;;;;;;;;;20.60;54.30;;;;;;5100867;28;20276;-9
2022/08/07 04:56:00;;;;;;;;;;;20.60;54.50;;;;;;5055234;28;19987;-9
2022/08/07 04:58:44;;;;;;;;;;;20.50;54.60;;;;;;5100400;28;19907;-9
2022/08/07 05:01:23;;;;;;;;;;;20.50;55.00;;;;;;5100159;28;19904;-9
2022/08/07 05:03:48;;;;;;;;;;;20.50;54.90;;;;;;5100176;28;20338;-9
2022/08/07 05:06:21;;;;;;;;;;;20.50;55.00;;;;;;5082478;28;20303;-9
2022/08/07 05:08:46;;;;;;;;;;;20.50;55.00;;;;;;5099874;28;19916;-9
2022/08/07 05:11:15;;;;;;;;;;;20.60;55.10;;;;;;5100259;28;20001;-9
2022/08/07 05:13:51;;;;;;;;;;;20.60;55.20;;;;;;5099790;28;19915;-9
2022/08/07 05:16:28;;;;;;;;;;;20.70;54.60;;;;;;5082284;28;20170;-9
2022/08/07 05:18:57;;;;;;;;;;;20.70;54.40;;;;;;5099572;28;19977;-9
2022/08/07 05:21:25;;;;;;;;;;;20.80;54.30;;;;;;5100053;28;19904;-9
2022/08/07 05:23:56;;;;;;;;;;;20.90;54.20;;;;;;5099987;28;20193;-9
2022/08/07 05:26:23;;;;;;;;;;;21.00;54.00;;;;;;5082684;28;19908;-9
2022/08/07 05:28:50;;;;;;;;;;;21.10;54.00;;;;;;5082480;28;19908;-9
2022/08/07 05:31:17;;;;;;;;;;;21.20;53.80;;;;;;5082131;28;19904;-9
2022/08/07 05:33:45;;;;;;;;;;;21.30;54.00;;;;;;5081824;28;19904;-9
2022/08/07 05:36:11;;;;;;;;;;;21.40;54.20;;;;;;5099596;28;19904;-9
2022/08/07 05:38:38;;;;;;;;;;;21.40;53.00;;;;;;5099466;28;19981;-9
2022/08/07 05:41:03;;;;;;;;;;;21.60;53.30;;;;;;5100350;28;19997;-9
2022/08/07 05:43:32;;;;;;;;;;;21.70;52.70;;;;;;5099485;28;20185;-9
2022/08/07 05:45:57;;;;;;;;;;;21.80;52.00;;;;;;5099782;28;19904;-9
2022/08/07 05:48:23;;;;;;;;;;;21.90;51.70;;;;;;5099179;28;19998;-9
2022/08/07 05:50:49;;;;;;;;;;;22.10;51.50;;;;;;5099009;28;19904;-9
2022/08/07 05:53:20;;;;;;;;;;;22.20;51.20;;;;;;5099128;28;19904;-8
2022/08/07 05:55:45;;;;;;;;;;;22.30;52.10;;;;;;5099173;28;19994;-9
2022/08/07 05:58:12;;;;;;;;;;;22.50;51.40;;;;;;5099352;28;20011;-9
2022/08/07 06:00:37;;;;;;;;;;;22.60;50.70;;;;;;5099145;28;19904;-9
2022/08/07 06:03:05;;;;;;;;;;;22.80;50.50;;;;;;5099338;28;19926;-9
2022/08/07 06:05:31;;;;;;;;;;;22.90;50.20;;;;;;5098847;28;19965;-9
2022/08/07 06:07:58;;;;;;;;;;;23.00;49.90;;;;;;5098952;28;19908;-9
2022/08/07 06:10:24;;;;;;;;;;;23.20;49.70;;;;;;5098939;28;19904;-9
2022/08/07 06:12:50;;;;;;;;;;;23.30;49.60;;;;;;5098657;28;19904;-9
2022/08/07 06:15:16;;;;;;;;;;;23.40;49.30;;;;;;5098934;28;20197;-9
2022/08/07 06:17:42;;;;;;;;;;;23.50;49.10;;;;;;5098563;28;19908;-9
2022/08/07 06:20:09;;;;;;;;;;;23.60;48.90;;;;;;5098917;28;19991;-9
2022/08/07 06:22:36;;;;;;;;;;;23.80;48.80;;;;;;5081171;28;19904;-9
2022/08/07 06:25:03;;;;;;;;;;;23.90;48.60;;;;;;5098484;28;20468;-9
2022/08/07 06:27:28;;;;;;;;;;;24.00;48.40;;;;;;5098237;28;19930;-9
2022/08/07 06:29:54;;;;;;;;;;;24.10;48.20;;;;;;5098565;28;19904;-9
2022/08/07 06:32:25;;;;;;;;;;;24.30;48.10;;;;;;5098107;28;19939;-9
2022/08/07 06:34:50;;;;;;;;;;;24.40;48.00;;;;;;5081134;28;20312;-9
2022/08/07 06:37:16;;;;;;;;;;;24.60;47.80;;;;;;5098214;28;20266;-9
2022/08/07 06:39:41;;;;;;;;;;;24.80;47.60;;;;;;5098701;28;19911;-9
2022/08/07 06:42:19;;;;;;;;;;;24.90;47.30;;;;;;5098069;28;19904;-9
2022/08/07 06:44:46;;;;;;;;;;;25.10;47.10;;;;;;5098530;28;20456;-9
2022/08/07 06:47:11;;;;;;;;;;;25.30;47.00;;;;;;5080619;28;19904;-9
2022/08/07 06:49:37;;;;;;;;;;;25.60;46.80;;;;;;5098117;28;19918;-9
2022/08/07 06:52:06;;;;;;;;;;;26.00;46.60;;;;;;5097911;28;19927;-9
2022/08/07 06:54:32;;;;;;;;;;;26.50;46.20;;;;;;5080731;28;19904;-9
2022/08/07 06:56:58;;;;;;;;;;;27.00;45.70;;;;;;5097784;28;19942;-9
2022/08/07 06:59:28;;;;;;;;;;;27.50;45.10;;;;;;5097670;28;19908;-9
2022/08/07 07:01:56;;;;;;;;;;;28.10;44.70;;;;;;5080402;28;19905;-9
2022/08/07 07:04:22;;;;;;;;;;;28.60;44.10;;;;;;5080275;28;19990;-9
2022/08/07 07:06:48;;;;;;;;;;;29.00;43.60;;;;;;5080252;28;19993;-10
2022/08/07 07:09:16;;;;;;;;;;;29.40;43.20;;;;;;5097558;28;19977;-9
2022/08/07 07:11:47;;;;;;;;;;;29.80;42.80;;;;;;5097664;28;20181;-9
2022/08/07 07:14:15;;;;;;;;;;;30.20;42.40;;;;;;5097978;28;20292;-9
2022/08/07 07:16:41;;;;;;;;;;;30.50;42.00;;;;;;5097518;28;20158;-10
2022/08/07 07:19:07;;;;;;;;;;;30.80;41.80;;;;;;5101522;28;19912;-9
2022/08/07 07:21:37;;;;;;;;;;;31.10;41.50;;;;;;5083120;28;19918;-9
2022/08/07 07:24:03;;;;;;;;;;;31.20;41.20;;;;;;5084700;28;20333;-9
2022/08/07 07:26:31;;;;;;;;;;;31.50;41.10;;;;;;5101981;28;19904;-9
2022/08/07 07:29:04;;;;;;;;;;;31.80;40.90;;;;;;5084518;28;19904;-9
2022/08/07 07:31:34;;;;;;;;;;;31.90;40.80;;;;;;5101707;28;19911;-9
2022/08/07 07:34:03;;;;;;;;;;;32.10;40.60;;;;;;5101780;28;19912;-9
2022/08/07 07:36:30;;;;;;;;;;;32.30;40.30;;;;;;5101999;28;20262;-9
2022/08/07 07:38:56;;;;;;;;;;;32.40;40.40;;;;;;5084137;28;20308;-9
2022/08/07 07:41:23;;;;;;;;;;;32.50;40.60;;;;;;5084130;28;19915;-9
2022/08/07 07:43:50;;;;;;;;;;;32.60;40.10;;;;;;5100469;28;19929;-9
2022/08/07 07:46:17;;;;;;;;;;;32.90;39.90;;;;;;5101143;28;19968;-9
2022/08/07 07:48:45;;;;;;;;;;;33.10;39.70;;;;;;5101575;28;19907;-9
2022/08/07 07:51:11;;;;;;;;;;;33.10;39.60;;;;;;5084080;28;19911;-9
2022/08/07 07:53:38;;;;;;;;;;;33.30;39.50;;;;;;5083743;28;20347;-9
2022/08/07 07:56:06;;;;;;;;;;;33.50;39.30;;;;;;5101604;28;19978;-9
2022/08/07 07:58:34;;;;;;;;;;;33.60;39.20;;;;;;5101217;28;19911;-9
2022/08/07 08:00:59;;;;;;;;;;;33.70;39.00;;;;;;5101301;28;19915;-9
2022/08/07 08:03:27;;;;;;;;;;;34.00;39.00;;;;;;5101041;28;19908;-9
2022/08/07 08:05:53;;;;;;;;;;;34.00;38.90;;;;;;5100844;28;19997;-9
2022/08/07 08:08:19;;;;;;;;;;;34.10;38.90;;;;;;5083448;28;19918;-9
2022/08/07 08:10:45;;;;;;;;;;;34.20;38.80;;;;;;5100304;28;19904;-9
2022/08/07 08:13:12;;;;;;;;;;;34.20;38.80;;;;;;5100329;28;19911;-9
2022/08/07 08:15:39;;;;;;;;;;;34.40;38.70;;;;;;5100587;28;19916;-9
2022/08/07 08:18:07;;;;;;;;;;;34.50;38.60;;;;;;5100441;28;20247;-9
2022/08/07 08:20:33;;;;;;;;;;;34.60;38.50;;;;;;5082616;28;19974;-9
2022/08/07 08:28:30;;;;;;;;;;;35.10;38.20;;;;;;5100030;28;19930;-9
2022/08/07 08:30:57;;;;;;;;;;;35.10;38.20;;;;;;5100075;28;19953;-9
2022/08/07 08:33:24;;;;;;;;;;;35.10;38.20;;;;;;5082654;28;19916;-9
2022/08/07 08:35:53;;;;;;;;;;;35.20;38.00;;;;;;5082258;28;19912;-10
2022/08/07 08:38:21;;;;;;;;;;;35.30;38.00;;;;;;5100229;28;19947;-9
2022/08/07 08:40:54;;;;;;;;;;;35.30;38.00;;;;;;5081767;28;19911;-18
2022/08/07 08:43:22;;;;;;;;;;;35.40;38.00;;;;;;5086048;28;20299;-9
2022/08/07 08:46:06;;;;;;;;;;;35.60;37.80;;;;;;5100142;28;19915;-9
2022/08/07 08:48:50;;;;;;;;;;;35.60;37.60;;;;;;5099662;28;20212;-9
2022/08/07 08:51:16;;;;;;;;;;;35.80;37.40;;;;;;5082216;28;19912;-9
2022/08/07 08:53:45;;;;;;;;;;;35.70;37.40;;;;;;5096814;28;20221;-9
2022/08/07 08:56:14;;;;;;;;;;;35.70;37.40;;;;;;5070984;28;20006;-10
2022/08/07 08:58:59;;;;;;;;;;;35.80;37.30;;;;;;5049000;28;19919;-10
2022/08/07 09:01:45;;;;;;;;;;;35.90;37.20;;;;;;5042203;28;19934;-10
2022/08/07 09:04:17;;;;;;;;;;;35.90;37.20;;;;;;5039756;28;19908;-10
2022/08/07 09:06:49;;;;;;;;;;;35.90;37.10;;;;;;5036389;28;19974;-9
2022/08/07 09:09:27;;;;;;;;;;;35.80;37.10;;;;;;5078829;28;19995;-9
2022/08/07 09:11:57;;;;;;;;;;;35.80;37.10;;;;;;5077020;28;19908;-9
2022/08/07 09:14:38;;;;;;;;;;;35.80;37.00;;;;;;5061290;28;19935;-9
2022/08/07 09:17:42;;;;;;;;;;;35.70;37.00;;;;;;5078680;28;19944;-9
2022/08/07 09:20:22;;;;;;;;;;;35.60;36.90;;;;;;4978518;28;19941;-9
2022/08/07 09:22:56;;;;;;;;;;;35.70;36.90;;;;;;4977923;28;19913;-9
2022/08/07 09:25:31;;;;;;;;;;;35.70;36.90;;;;;;4977762;28;20558;-9
2022/08/07 09:28:09;;;;;;;;;;;35.70;36.90;;;;;;4977871;28;19906;-10
2022/08/07 09:30:53;;;;;;;;;;;35.80;36.90;;;;;;4973000;28;19906;-9
2022/08/07 09:33:18;;;;;;;;;;;35.80;36.80;;;;;;5078628;28;20293;-9
2022/08/07 09:35:56;;;;;;;;;;;35.80;36.70;;;;;;5078129;28;19905;-9
2022/08/07 09:38:28;;;;;;;;;;;35.80;36.60;;;;;;5078380;28;19909;-11
2022/08/07 09:40:59;;;;;;;;;;;35.80;36.60;;;;;;5077617;28;20003;-9
2022/08/07 09:43:51;;;;;;;;;;;35.90;36.70;;;;;;5060709;28;19916;-9
2022/08/07 09:46:23;;;;;;;;;;;35.80;35.90;;;;;;5076183;28;19956;-9
2022/08/07 09:49:05;;;;;;;;;;;35.40;34.10;;;;;;5077644;28;20189;-9
2022/08/07 09:51:46;;;;;;;;;;;35.10;35.90;;;;;;5059789;28;19905;-9
2022/08/07 09:54:15;;;;;;;;;;;34.70;36.10;;;;;;5077936;28;19904;-9
2022/08/07 09:57:07;;;;;;;;;;;34.20;36.70;;;;;;5077617;28;19920;-9
2022/08/07 09:59:51;;;;;;;;;;;33.60;36.90;;;;;;5072484;28;19912;-9
2022/08/07 10:02:35;;;;;;;;;;;32.80;37.10;;;;;;5077598;28;19954;-9
2022/08/07 10:05:31;;;;;;;;;;;32.10;37.80;;;;;;5077218;28;19904;-10
2022/08/07 10:08:15;;;;;;;;;;;31.70;38.10;;;;;;5077260;28;19943;-9
2022/08/07 10:10:47;;;;;;;;;;;31.30;38.30;;;;;;5060419;28;20405;-9
2022/08/07 10:13:31;;;;;;;;;;;31.00;38.80;;;;;;5077770;28;19916;-9
2022/08/07 10:16:19;;;;;;;;;;;30.70;39.10;;;;;;5077461;28;19905;-9
2022/08/07 10:19:04;;;;;;;;;;;30.50;39.40;;;;;;5076953;28;20002;-9
2022/08/07 10:21:33;;;;;;;;;;;30.20;39.50;;;;;;5077235;28;19919;-9
2022/08/07 10:24:08;;;;;;;;;;;30.10;39.90;;;;;;5059180;28;19904;-9
2022/08/07 10:26:52;;;;;;;;;;;29.90;40.00;;;;;;5076708;28;19905;-9
2022/08/07 10:29:40;;;;;;;;;;;29.90;40.00;;;;;;5077317;28;19943;-9
2022/08/07 10:32:23;;;;;;;;;;;29.80;40.10;;;;;;5077054;28;20418;-9
2022/08/07 10:35:00;;;;;;;;;;;29.70;40.30;;;;;;5076725;28;20379;-9
2022/08/07 10:37:34;;;;;;;;;;;29.60;40.50;;;;;;5076768;28;19908;-9
2022/08/07 10:40:02;;;;;;;;;;;29.50;40.70;;;;;;5076260;28;19970;-9
2022/08/07 10:42:34;;;;;;;;;;;29.50;40.80;;;;;;5059875;28;19912;-9
2022/08/07 10:45:05;;;;;;;;;;;29.40;40.40;;;;;;5059241;28;19944;-9
2022/08/07 10:47:57;;;;;;;;;;;29.30;40.90;;;;;;5077310;28;20303;-9
2022/08/07 10:50:27;;;;;;;;;;;29.20;41.00;;;;;;5071455;28;19931;-9
2022/08/07 10:53:02;;;;;;;;;;;29.20;40.80;;;;;;5057623;28;19912;-9
2022/08/07 10:55:46;;;;;;;;;;;29.10;40.10;;;;;;5075720;28;20011;-9
2022/08/07 10:58:19;;;;;;;;;;;29.00;39.80;;;;;;5059438;28;19939;-9
2022/08/07 11:00:51;;;;;;;;;;;28.90;40.30;;;;;;5058979;28;20015;-9
2022/08/07 11:03:40;;;;;;;;;;;28.90;40.60;;;;;;5058343;28;19915;-9
2022/08/07 11:06:15;;;;;;;;;;;28.80;39.70;;;;;;5063375;28;19904;-9
2022/08/07 11:08:50;;;;;;;;;;;28.70;38.80;;;;;;5076561;28;19999;-9
2022/08/07 11:11:25;;;;;;;;;;;28.70;38.90;;;;;;5059101;28;19991;-9
2022/08/07 11:14:17;;;;;;;;;;;28.70;40.20;;;;;;5076807;28;19915;-9
2022/08/07 11:16:42;;;;;;;;;;;28.60;40.40;;;;;;5038237;28;19904;-9
2022/08/07 11:19:28;;;;;;;;;;;28.60;40.50;;;;;;5076818;28;19934;-9
2022/08/07 11:22:05;;;;;;;;;;;28.60;41.00;;;;;;5076260;28;19939;-9
2022/08/07 11:24:38;;;;;;;;;;;28.50;40.90;;;;;;5077024;28;19904;-9
2022/08/07 11:27:06;;;;;;;;;;;28.50;41.40;;;;;;5071589;28;20139;-9
2022/08/07 11:29:35;;;;;;;;;;;28.40;41.30;;;;;;5052836;28;19904;-9
2022/08/07 11:32:08;;;;;;;;;;;28.40;41.50;;;;;;5052874;28;19916;-9
2022/08/07 11:34:37;;;;;;;;;;;28.30;41.60;;;;;;5053787;28;19912;-9
2022/08/07 11:37:15;;;;;;;;;;;28.30;41.60;;;;;;5053480;28;20053;-9
2022/08/07 11:39:45;;;;;;;;;;;28.20;41.70;;;;;;5070010;28;19916;-9
2022/08/07 11:42:19;;;;;;;;;;;28.20;42.00;;;;;;5052937;28;19904;-9
2022/08/07 11:44:57;;;;;;;;;;;28.20;42.00;;;;;;5070518;28;19915;-9
2022/08/07 11:47:37;;;;;;;;;;;28.20;42.10;;;;;;5070295;28;19919;-9
2022/08/07 11:50:11;;;;;;;;;;;28.10;42.30;;;;;;5069959;28;19989;-9
2022/08/07 11:52:54;;;;;;;;;;;28.00;42.40;;;;;;5069224;28;20003;-9
2022/08/07 11:55:45;;;;;;;;;;;28.00;42.50;;;;;;5070359;28;19912;-9
2022/08/07 11:58:19;;;;;;;;;;;28.00;42.40;;;;;;5069731;28;19919;-10
2022/08/07 12:01:03;;;;;;;;;;;28.00;42.50;;;;;;5070409;28;19904;-10
2022/08/07 12:03:44;;;;;;;;;;;28.00;42.70;;;;;;5071910;28;20187;-9
2022/08/07 12:06:28;;;;;;;;;;;27.90;42.40;;;;;;5057602;28;19915;-9
2022/08/07 12:08:54;;;;;;;;;;;27.80;39.30;;;;;;5058019;28;19912;-9
2022/08/07 12:11:25;;;;;;;;;;;27.80;41.00;;;;;;5073901;28;20116;-9
2022/08/07 12:13:54;;;;;;;;;;;27.80;41.60;;;;;;5074556;28;19912;-9
2022/08/07 12:16:21;;;;;;;;;;;27.80;42.20;;;;;;5074860;28;19912;-10
2022/08/07 12:19:13;;;;;;;;;;;27.70;42.50;;;;;;5075589;28;20155;-9
2022/08/07 12:22:17;;;;;;;;;;;27.70;42.70;;;;;;5035606;28;19912;-9
2022/08/07 12:25:51;;;;;;;;;;;27.60;42.60;;;;;;4971566;28;20031;-9
2022/08/07 12:27:34;;;;;;;;;;;27.60;42.90;;;;;;4973995;28;19917;-9
2022/08/07 12:30:04;;;;;;;;;;;27.50;38.50;;;;;;5038500;28;19951;-9
2022/08/07 12:32:40;;;;;;;;;;;27.50;39.70;;;;;;5055933;28;20179;-9
2022/08/07 12:35:09;;;;;;;;;;;27.50;41.60;;;;;;5056724;28;19958;-9
2022/08/07 12:37:36;;;;;;;;;;;27.50;42.20;;;;;;5054392;28;20033;-9
2022/08/07 12:40:03;;;;;;;;;;;27.50;42.20;;;;;;5074389;28;19915;-9
2022/08/07 12:42:29;;;;;;;;;;;27.50;42.10;;;;;;5074381;28;20257;-9
2022/08/07 12:44:56;;;;;;;;;;;27.50;41.90;;;;;;5073207;28;19911;-9
2022/08/07 12:47:35;;;;;;;;;;;27.50;41.20;;;;;;5073529;28;20192;-9
2022/08/07 12:50:26;;;;;;;;;;;27.50;42.70;;;;;;5073389;28;19927;-10
2022/08/07 12:52:54;;;;;;;;;;;27.50;41.90;;;;;;5073348;28;19940;-9
2022/08/07 12:55:39;;;;;;;;;;;27.40;41.70;;;;;;5055735;28;19935;-9
2022/08/07 12:58:06;;;;;;;;;;;27.40;42.90;;;;;;5054351;28;19905;-9
2022/08/07 13:00:41;;;;;;;;;;;27.40;43.00;;;;;;5073026;28;20309;-9
2022/08/07 13:03:07;;;;;;;;;;;27.40;43.10;;;;;;5071742;28;19916;-9
2022/08/07 13:05:41;;;;;;;;;;;27.30;42.90;;;;;;5071743;28;19904;-9
2022/08/07 13:08:26;;;;;;;;;;;27.40;43.10;;;;;;5073020;28;19905;-9
2022/08/07 13:11:14;;;;;;;;;;;27.40;43.10;;;;;;5055322;28;20281;-9
2022/08/07 13:13:39;;;;;;;;;;;27.30;38.30;;;;;;5072356;28;19912;-9
2022/08/07 13:16:05;;;;;;;;;;;27.30;41.70;;;;;;5071564;28;20212;-9
2022/08/07 13:18:38;;;;;;;;;;;27.30;42.50;;;;;;5073033;28;20004;-9
2022/08/07 13:21:13;;;;;;;;;;;27.40;42.90;;;;;;5071947;28;19938;-9
2022/08/07 13:23:44;;;;;;;;;;;27.40;42.60;;;;;;5054540;28;19904;-9
2022/08/07 13:26:13;;;;;;;;;;;27.40;42.90;;;;;;5053822;28;20269;-9
2022/08/07 13:28:48;;;;;;;;;;;27.40;43.10;;;;;;5071373;28;19927;-9
2022/08/07 13:31:27;;;;;;;;;;;27.40;43.30;;;;;;5072637;28;19943;-9
2022/08/07 13:33:53;;;;;;;;;;;27.30;43.00;;;;;;5070742;28;20094;-9
2022/08/07 13:36:24;;;;;;;;;;;27.30;43.40;;;;;;5073428;28;19991;-9
2022/08/07 13:38:57;;;;;;;;;;;27.30;43.80;;;;;;5071947;28;19908;-10
2022/08/07 13:41:34;;;;;;;;;;;27.30;43.50;;;;;;5055197;28;20043;-9
2022/08/07 13:44:03;;;;;;;;;;;27.30;43.50;;;;;;5071641;28;20142;-9
2022/08/07 13:46:30;;;;;;;;;;;27.30;43.50;;;;;;5071391;28;19950;-9
2022/08/07 13:48:57;;;;;;;;;;;27.30;43.60;;;;;;5072724;28;19927;-9
2022/08/07 13:51:24;;;;;;;;;;;27.30;42.60;;;;;;5055404;28;19915;-9
2022/08/07 13:53:52;;;;;;;;;;;27.30;43.10;;;;;;5054032;28;20253;-9
2022/08/07 13:56:19;;;;;;;;;;;27.30;43.40;;;;;;5070978;28;19911;-9
2022/08/07 13:59:01;;;;;;;;;;;27.30;43.60;;;;;;5072679;28;20185;-9
2022/08/07 14:01:35;;;;;;;;;;;27.30;43.40;;;;;;5054274;28;20273;-10
2022/08/07 14:04:02;;;;;;;;;;;27.30;41.10;;;;;;5054322;28;19958;-9
2022/08/07 14:06:33;;;;;;;;;;;27.20;39.50;;;;;;5069734;28;19904;-9
2022/08/07 14:09:00;;;;;;;;;;;27.20;42.10;;;;;;5069863;28;19911;-9
2022/08/07 14:11:27;;;;;;;;;;;27.30;42.90;;;;;;5071664;28;20257;-9
2022/08/07 14:13:54;;;;;;;;;;;27.20;40.10;;;;;;5072224;28;19908;-9
2022/08/07 14:16:24;;;;;;;;;;;27.20;39.80;;;;;;5070676;28;20013;-9
2022/08/07 14:18:50;;;;;;;;;;;27.20;42.50;;;;;;5070516;28;19939;-10
2022/08/07 14:21:23;;;;;;;;;;;27.20;42.10;;;;;;5071285;28;19954;-9
2022/08/07 14:24:09;;;;;;;;;;;27.00;39.40;;;;;;5071751;28;19915;-9
2022/08/07 14:26:37;;;;;;;;;;;27.10;41.50;;;;;;5054436;28;19995;-9
2022/08/07 14:29:04;;;;;;;;;;;27.00;39.60;;;;;;5076732;28;20408;-9
2022/08/07 14:31:30;;;;;;;;;;;27.10;40.40;;;;;;5077078;28;19915;-9
2022/08/07 14:33:58;;;;;;;;;;;27.10;42.00;;;;;;5074842;28;19912;-9
2022/08/07 14:36:24;;;;;;;;;;;27.10;40.50;;;;;;5070863;28;19908;-9
2022/08/07 14:38:50;;;;;;;;;;;27.10;42.20;;;;;;5070914;28;19912;-10
2022/08/07 14:41:25;;;;;;;;;;;27.10;42.30;;;;;;5071709;28;19905;-9
2022/08/07 14:43:53;;;;;;;;;;;27.10;42.70;;;;;;5072461;28;20181;-9
2022/08/07 14:46:20;;;;;;;;;;;27.00;42.10;;;;;;5054066;28;19931;-9
2022/08/07 14:48:46;;;;;;;;;;;27.00;40.50;;;;;;5072203;28;20289;-9
2022/08/07 14:51:17;;;;;;;;;;;27.10;42.70;;;;;;5071014;28;19904;-9
2022/08/07 14:53:44;;;;;;;;;;;27.10;42.90;;;;;;5069143;28;19935;-10